Lenora, KS

1:15 AM CST on February 10, 2016 (GMT -0600)
1 East, 2.5 South | | Change Station
CLOSE
Current Station
Personal Weather Station
Location: Lenora, KS
Elevation: 2467 ft
Nearby Weather Stations

Elev 2467 ft 39.57 °N, 99.99 °W | Updated 2 minutes ago

Clear
Clear
33.0 °F
Feels Like 26 °F
N
9.0
Wind Variable Wind from West
Gusts 12.0 mph

Today
High -- | Low -- °F
--% Chance of Precip.
Yesterday
High -- | Low -- °F
Precip. -- in
Pressure 30.20 in
Visibility 10.0 miles
Clouds Clear
Windchill 26 °F
Dew Point Not available.
Humidity Not available.
Rainfall Not available.
Snow Depth Not available.
7:38 AM 6:10 PM
Waxing Crescent, 4% visible
METAR KHLC 100653Z AUTO 26005KT 10SM CLR M01/M05 A3015 RMK AO2 SLP225 T10111050
Pressure 30.20 in
Visibility 10.0 miles
Clouds Clear
Windchill 26 °F
Dew Point Not available.
Humidity Not available.
Rainfall Not available.
Snow Depth Not available.
7:38 AM 6:10 PM
Waxing Crescent, 4% visible
METAR KHLC 100653Z AUTO 26005KT 10SM CLR M01/M05 A3015 RMK AO2 SLP225 T10111050

10-Day Weather Forecast

Almanac

Astronomy

Feb. 10, 2016 Rise Set
Actual Time
Civil Twilight
Nautical Twilight
Astronomical Twilight
Moon
Length of Visible Light
Length of Day
Tomorrow will be .
, % of the Moon is Illuminated

Today's Extremes

State Highs State Lows

Community

WunderPhotos

Upload Photos

1,891,826 photos uploaded!

WunderBlog® & News

Nearby

Air Quality

  Air Quality AQ Index Pollutant
Not available.

Snow Depth

Station Depth Elevation

Earthquake Activity

City Distance Mag. Time & Date
Minimum magnitude displayed is 2.5.

Coastal Water Temperatures

Place Temperature

Stations

Nearby Weather Stations

Station Location Temp. Windchill Dew Point Humidity Wind Precip. Elev Updated Type
                   

Watches & Warnings

There are currently no watches in effect.